sensor_id;sensor_type;location;lat;lon;timestamp;pressure;altitude;pressure_sealevel;temperature;humidity
2791;BME280;31795;50.970;13.366;2022-10-16T00:00:52;97527.59;;;12.11;100.00
2791;BME280;31795;50.970;13.366;2022-10-16T00:02:58;97531.63;;;12.14;100.00
2791;BME280;31795;50.970;13.366;2022-10-16T00:05:08;97530.63;;;12.15;100.00
2791;BME280;31795;50.970;13.366;2022-10-16T00:07:29;97532.03;;;12.17;100.00
2791;BME280;31795;50.970;13.366;2022-10-16T00:09:38;97534.88;;;12.16;100.00
2791;BME280;31795;50.970;13.366;2022-10-16T00:11:51;97534.88;;;12.16;100.00
2791;BME280;31795;50.970;13.366;2022-10-16T00:14:17;97532.66;;;12.13;100.00
2791;BME280;31795;50.970;13.366;2022-10-16T00:16:24;97540.88;;;12.09;100.00
2791;BME280;31795;50.970;13.366;2022-10-16T00:18:47;97532.41;;;12.07;100.00
2791;BME280;31795;50.970;13.366;2022-10-16T00:20:55;97538.03;;;12.04;100.00
2791;BME280;31795;50.970;13.366;2022-10-16T00:23:16;97536.22;;;11.98;100.00
2791;BME280;31795;50.970;13.366;2022-10-16T00:25:29;97539.47;;;12.00;100.00
2791;BME280;31795;50.970;13.366;2022-10-16T00:27:37;97543.06;;;11.99;100.00
2791;BME280;31795;50.970;13.366;2022-10-16T00:29:53;97551.06;;;11.98;100.00
2791;BME280;31795;50.970;13.366;2022-10-16T00:32:19;97554.91;;;11.95;100.00
2791;BME280;31795;50.970;13.366;2022-10-16T00:34:31;97565.56;;;11.93;100.00
2791;BME280;31795;50.970;13.366;2022-10-16T00:36:38;97571.59;;;11.94;100.00
2791;BME280;31795;50.970;13.366;2022-10-16T00:38:45;97563.53;;;11.89;100.00
2791;BME280;31795;50.970;13.366;2022-10-16T00:40:55;97567.56;;;11.85;100.00
2791;BME280;31795;50.970;13.366;2022-10-16T00:43:31;97565.91;;;11.77;100.00
2791;BME280;31795;50.970;13.366;2022-10-16T00:45:44;97570.72;;;11.73;100.00
2791;BME280;31795;50.970;13.366;2022-10-16T00:48:00;97572.72;;;11.71;100.00
2791;BME280;31795;50.970;13.366;2022-10-16T00:50:24;97573.09;;;11.68;100.00
2791;BME280;31795;50.970;13.366;2022-10-16T00:52:32;97578.34;;;11.68;100.00
2791;BME280;31795;50.970;13.366;2022-10-16T00:54:46;97582.94;;;11.66;100.00
2791;BME280;31795;50.970;13.366;2022-10-16T00:56:53;97590.00;;;11.65;100.00
2791;BME280;31795;50.970;13.366;2022-10-16T00:59:06;97589.00;;;11.67;100.00
2791;BME280;31795;50.970;13.366;2022-10-16T01:01:15;97583.56;;;11.68;100.00
2791;BME280;31795;50.970;13.366;2022-10-16T01:03:25;97583.81;;;11.73;100.00
2791;BME280;31795;50.970;13.366;2022-10-16T01:05:37;97579.84;;;11.84;100.00
2791;BME280;31795;50.970;13.366;2022-10-16T01:07:56;97575.22;;;11.93;100.00
2791;BME280;31795;50.970;13.366;2022-10-16T01:10:30;97574.50;;;12.06;100.00
2791;BME280;31795;50.970;13.366;2022-10-16T01:12:43;97577.13;;;12.13;100.00
2791;BME280;31795;50.970;13.366;2022-10-16T01:15:01;97573.13;;;12.17;100.00
2791;BME280;31795;50.970;13.366;2022-10-16T01:17:37;97588.84;;;12.30;100.00
2791;BME280;31795;50.970;13.366;2022-10-16T01:20:18;97584.81;;;12.41;100.00
2791;BME280;31795;50.970;13.366;2022-10-16T01:23:09;97583.81;;;12.49;100.00
2791;BME280;31795;50.970;13.366;2022-10-16T01:25:52;97581.03;;;12.57;100.00
2791;BME280;31795;50.970;13.366;2022-10-16T01:28:09;97588.06;;;12.63;100.00
2791;BME280;31795;50.970;13.366;2022-10-16T01:30:23;97591.91;;;12.67;100.00
2791;BME280;31795;50.970;13.366;2022-10-16T01:32:36;97583.44;;;12.72;100.00
2791;BME280;31795;50.970;13.366;2022-10-16T01:35:07;97576.59;;;12.78;100.00
2791;BME280;31795;50.970;13.366;2022-10-16T01:37:28;97578.59;;;12.82;100.00
2791;BME280;31795;50.970;13.366;2022-10-16T01:39:38;97578.81;;;12.81;100.00
2791;BME280;31795;50.970;13.366;2022-10-16T01:41:49;97571.97;;;12.80;100.00
2791;BME280;31795;50.970;13.366;2022-10-16T01:44:03;97571.97;;;12.80;100.00
2791;BME280;31795;50.970;13.366;2022-10-16T01:46:19;97570.75;;;12.82;100.00
2791;BME280;31795;50.970;13.366;2022-10-16T01:48:29;97578.00;;;12.87;100.00
2791;BME280;31795;50.970;13.366;2022-10-16T01:50:53;97575.59;;;12.92;100.00
2791;BME280;31795;50.970;13.366;2022-10-16T01:53:04;97586.66;;;12.94;100.00
2791;BME280;31795;50.970;13.366;2022-10-16T01:55:29;97579.22;;;12.98;100.00
2791;BME280;31795;50.970;13.366;2022-10-16T01:57:43;97585.66;;;13.02;100.00
2791;BME280;31795;50.970;13.366;2022-10-16T02:00:12;97587.28;;;13.03;100.00
2791;BME280;31795;50.970;13.366;2022-10-16T02:02:20;97585.03;;;13.07;100.00
2791;BME280;31795;50.970;13.366;2022-10-16T02:04:33;97594.09;;;13.11;100.00
2791;BME280;31795;50.970;13.366;2022-10-16T02:06:40;97585.22;;;13.12;100.00
2791;BME280;31795;50.970;13.366;2022-10-16T02:08:51;97586.66;;;13.14;100.00
2791;BME280;31795;50.970;13.366;2022-10-16T02:11:04;97582.19;;;13.15;100.00
2791;BME280;31795;50.970;13.366;2022-10-16T02:13:29;97582.19;;;13.15;100.00
2791;BME280;31795;50.970;13.366;2022-10-16T02:15:44;97584.81;;;13.15;100.00
2791;BME280;31795;50.970;13.366;2022-10-16T02:18:09;97580.41;;;13.15;100.00
2791;BME280;31795;50.970;13.366;2022-10-16T02:20:21;97588.06;;;13.17;100.00
2791;BME280;31795;50.970;13.366;2022-10-16T02:22:48;97592.50;;;13.16;100.00
2791;BME280;31795;50.970;13.366;2022-10-16T02:24:59;97582.41;;;13.13;100.00
2791;BME280;31795;50.970;13.366;2022-10-16T02:27:11;97588.84;;;13.11;100.00
2791;BME280;31795;50.970;13.366;2022-10-16T02:29:37;97591.69;;;13.09;100.00
2791;BME280;31795;50.970;13.366;2022-10-16T02:31:49;97596.72;;;13.04;100.00
2791;BME280;31795;50.970;13.366;2022-10-16T02:33:58;97604.59;;;12.97;100.00
2791;BME280;31795;50.970;13.366;2022-10-16T02:36:12;97602.19;;;12.89;100.00
2791;BME280;31795;50.970;13.366;2022-10-16T02:38:23;97596.16;;;12.82;100.00
2791;BME280;31795;50.970;13.366;2022-10-16T02:40:31;97605.78;;;12.75;100.00
2791;BME280;31795;50.970;13.366;2022-10-16T02:43:03;97600.16;;;12.64;100.00
2791;BME280;31795;50.970;13.366;2022-10-16T02:45:13;97594.13;;;12.57;100.00
2791;BME280;31795;50.970;13.366;2022-10-16T02:47:40;97598.53;;;12.50;100.00
2791;BME280;31795;50.970;13.366;2022-10-16T02:49:59;97578.81;;;12.47;100.00
2791;BME280;31795;50.970;13.366;2022-10-16T02:52:09;97575.56;;;12.45;100.00
2791;BME280;31795;50.970;13.366;2022-10-16T02:54:20;97587.25;;;12.43;100.00
2791;BME280;31795;50.970;13.366;2022-10-16T02:56:29;97584.81;;;12.41;100.00
2791;BME280;31795;50.970;13.366;2022-10-16T02:58:42;97579.97;;;12.38;100.00
2791;BME280;31795;50.970;13.366;2022-10-16T03:00:49;97576.78;;;12.36;100.00
2791;BME280;31795;50.970;13.366;2022-10-16T03:03:11;97584.81;;;12.34;100.00
2791;BME280;31795;50.970;13.366;2022-10-16T03:05:21;97581.41;;;12.34;100.00
2791;BME280;31795;50.970;13.366;2022-10-16T03:07:33;97592.66;;;12.34;100.00
2791;BME280;31795;50.970;13.366;2022-10-16T03:09:42;97609.97;;;12.35;100.00
2791;BME280;31795;50.970;13.366;2022-10-16T03:11:49;97608.56;;;12.33;100.00
2791;BME280;31795;50.970;13.366;2022-10-16T03:14:12;97609.56;;;12.32;100.00
2791;BME280;31795;50.970;13.366;2022-10-16T03:16:21;97612.19;;;12.32;100.00
2791;BME280;31795;50.970;13.366;2022-10-16T03:18:48;97615.03;;;12.30;100.00
2791;BME280;31795;50.970;13.366;2022-10-16T03:20:55;97614.81;;;12.32;100.00
2791;BME280;31795;50.970;13.366;2022-10-16T03:23:03;97604.56;;;12.30;100.00
2791;BME280;31795;50.970;13.366;2022-10-16T03:25:09;97614.81;;;12.32;100.00
2791;BME280;31795;50.970;13.366;2022-10-16T03:27:36;97607.16;;;12.30;100.00
2791;BME280;31795;50.970;13.366;2022-10-16T03:29:44;97612.59;;;12.29;100.00
2791;BME280;31795;50.970;13.366;2022-10-16T03:31:54;97615.41;;;12.27;100.00
2791;BME280;31795;50.970;13.366;2022-10-16T03:34:02;97612.19;;;12.25;100.00
2791;BME280;31795;50.970;13.366;2022-10-16T03:36:09;97610.56;;;12.24;100.00
2791;BME280;31795;50.970;13.366;2022-10-16T03:38:18;97611.19;;;12.26;100.00
2791;BME280;31795;50.970;13.366;2022-10-16T03:40:34;97603.31;;;12.26;100.00
2791;BME280;31795;50.970;13.366;2022-10-16T03:42:57;97603.50;;;12.24;100.00
2791;BME280;31795;50.970;13.366;2022-10-16T03:45:24;97605.13;;;12.25;100.00
2791;BME280;31795;50.970;13.366;2022-10-16T03:47:34;97604.56;;;12.30;100.00
2791;BME280;31795;50.970;13.366;2022-10-16T03:50:19;97605.56;;;12.36;100.00
2791;BME280;31795;50.970;13.366;2022-10-16T03:52:26;97609.59;;;12.38;100.00
2791;BME280;31795;50.970;13.366;2022-10-16T03:54:33;97617.22;;;12.40;100.00
2791;BME280;31795;50.970;13.366;2022-10-16T03:56:41;97627.53;;;12.41;100.00
2791;BME280;31795;50.970;13.366;2022-10-16T03:59:05;97626.91;;;12.39;100.00
2791;BME280;31795;50.970;13.366;2022-10-16T04:01:12;97634.94;;;12.38;100.00
2791;BME280;31795;50.970;13.366;2022-10-16T04:03:18;97639.59;;;12.36;100.00
2791;BME280;31795;50.970;13.366;2022-10-16T04:05:37;97644.41;;;12.32;100.00
2791;BME280;31795;50.970;13.366;2022-10-16T04:07:44;97646.44;;;12.30;100.00
2791;BME280;31795;50.970;13.366;2022-10-16T04:09:54;97646.81;;;12.27;100.00
2791;BME280;31795;50.970;13.366;2022-10-16T04:12:12;97645.00;;;12.27;100.00
2791;BME280;31795;50.970;13.366;2022-10-16T04:14:23;97646.81;;;12.27;100.00
2791;BME280;31795;50.970;13.366;2022-10-16T04:16:43;97633.72;;;12.27;100.00
2791;BME280;31795;50.970;13.366;2022-10-16T04:18:55;97645.19;;;12.26;100.00
2791;BME280;31795;50.970;13.366;2022-10-16T04:21:27;97651.84;;;12.29;100.00
2791;BME280;31795;50.970;13.366;2022-10-16T04:23:34;97643.81;;;12.30;100.00
2791;BME280;31795;50.970;13.366;2022-10-16T04:25:45;97652.84;;;12.34;100.00
2791;BME280;31795;50.970;13.366;2022-10-16T04:28:05;97651.84;;;12.35;100.00
2791;BME280;31795;50.970;13.366;2022-10-16T04:30:21;97654.88;;;12.39;100.00
2791;BME280;31795;50.970;13.366;2022-10-16T04:32:28;97651.25;;;12.40;100.00
2791;BME280;31795;50.970;13.366;2022-10-16T04:34:39;97657.31;;;12.40;100.00
2791;BME280;31795;50.970;13.366;2022-10-16T04:37:24;97655.72;;;12.39;100.00
2791;BME280;31795;50.970;13.366;2022-10-16T04:39:31;97674.03;;;12.39;100.00
2791;BME280;31795;50.970;13.366;2022-10-16T04:41:44;97659.31;;;12.38;100.00
2791;BME280;31795;50.970;13.366;2022-10-16T04:44:04;97647.44;;;12.36;100.00
2791;BME280;31795;50.970;13.366;2022-10-16T04:46:15;97646.00;;;12.33;100.00
2791;BME280;31795;50.970;13.366;2022-10-16T04:48:22;97661.09;;;12.31;100.00
2791;BME280;31795;50.970;13.366;2022-10-16T04:50:48;97664.94;;;12.29;100.00
2791;BME280;31795;50.970;13.366;2022-10-16T04:53:24;97651.44;;;12.25;100.00
2791;BME280;31795;50.970;13.366;2022-10-16T04:55:39;97663.09;;;12.22;100.00
2791;BME280;31795;50.970;13.366;2022-10-16T04:57:47;97663.50;;;12.19;100.00
2791;BME280;31795;50.970;13.366;2022-10-16T04:59:55;97662.88;;;12.17;100.00
2791;BME280;31795;50.970;13.366;2022-10-16T05:02:15;97651.19;;;12.13;100.00
2791;BME280;31795;50.970;13.366;2022-10-16T05:04:24;97658.41;;;12.11;100.00
2791;BME280;31795;50.970;13.366;2022-10-16T05:06:31;97655.22;;;12.09;100.00
2791;BME280;31795;50.970;13.366;2022-10-16T05:09:07;97663.22;;;12.07;100.00
2791;BME280;31795;50.970;13.366;2022-10-16T05:11:17;97674.91;;;12.05;100.00
2791;BME280;31795;50.970;13.366;2022-10-16T05:13:24;97681.34;;;12.02;100.00
2791;BME280;31795;50.970;13.366;2022-10-16T05:15:47;97676.09;;;12.02;100.00
2791;BME280;31795;50.970;13.366;2022-10-16T05:17:54;97666.81;;;12.00;100.00
2791;BME280;31795;50.970;13.366;2022-10-16T05:20:08;97671.88;;;12.01;100.00
2791;BME280;31795;50.970;13.366;2022-10-16T05:22:23;97664.81;;;12.02;100.00
2791;BME280;31795;50.970;13.366;2022-10-16T05:24:31;97662.41;;;12.00;100.00
2791;BME280;31795;50.970;13.366;2022-10-16T05:26:38;97662.75;;;11.97;100.00
2791;BME280;31795;50.970;13.366;2022-10-16T05:28:50;97662.97;;;11.95;100.00
2791;BME280;31795;50.970;13.366;2022-10-16T05:31:05;97666.59;;;11.94;100.00
2791;BME280;31795;50.970;13.366;2022-10-16T05:33:15;97669.38;;;11.93;100.00
2791;BME280;31795;50.970;13.366;2022-10-16T05:35:24;97679.25;;;11.91;100.00
2791;BME280;31795;50.970;13.366;2022-10-16T05:37:38;97679.44;;;11.89;100.00
2791;BME280;31795;50.970;13.366;2022-10-16T05:39:58;97685.66;;;11.88;100.00
2791;BME280;31795;50.970;13.366;2022-10-16T05:42:14;97691.31;;;11.92;100.00
2791;BME280;31795;50.970;13.366;2022-10-16T05:44:30;97704.63;;;11.97;100.00
2791;BME280;31795;50.970;13.366;2022-10-16T05:46:51;97711.13;;;12.01;100.00
2791;BME280;31795;50.970;13.366;2022-10-16T05:49:05;97713.31;;;12.04;100.00
2791;BME280;31795;50.970;13.366;2022-10-16T05:51:43;97707.91;;;12.06;100.00
2791;BME280;31795;50.970;13.366;2022-10-16T05:53:59;97710.16;;;12.09;100.00
2791;BME280;31795;50.970;13.366;2022-10-16T05:56:27;97707.34;;;12.10;100.00
2791;BME280;31795;50.970;13.366;2022-10-16T05:58:41;97716.59;;;12.13;100.00
2791;BME280;31795;50.970;13.366;2022-10-16T06:01:03;97712.59;;;12.17;100.00
2791;BME280;31795;50.970;13.366;2022-10-16T06:03:23;97716.66;;;12.26;100.00
2791;BME280;31795;50.970;13.366;2022-10-16T06:05:29;97722.75;;;12.34;100.00
2791;BME280;31795;50.970;13.366;2022-10-16T06:10:03;97729.63;;;12.48;100.00
2791;BME280;31795;50.970;13.366;2022-10-16T06:12:20;97727.44;;;12.59;100.00
2791;BME280;31795;50.970;13.366;2022-10-16T06:14:41;97737.13;;;12.65;100.00
2791;BME280;31795;50.970;13.366;2022-10-16T06:19:07;97738.59;;;12.81;100.00
2791;BME280;31795;50.970;13.366;2022-10-16T06:21:17;97741.00;;;12.82;100.00
2791;BME280;31795;50.970;13.366;2022-10-16T06:23:25;97737.19;;;12.92;100.00
2791;BME280;31795;50.970;13.366;2022-10-16T06:25:35;97737.03;;;13.00;100.00
2791;BME280;31795;50.970;13.366;2022-10-16T06:27:50;97744.50;;;13.10;100.00
2791;BME280;31795;50.970;13.366;2022-10-16T06:30:12;97737.84;;;13.21;100.00
2791;BME280;31795;50.970;13.366;2022-10-16T06:32:31;97746.53;;;13.28;100.00
2791;BME280;31795;50.970;13.366;2022-10-16T06:35:10;97743.09;;;13.34;100.00
2791;BME280;31795;50.970;13.366;2022-10-16T06:37:26;97754.78;;;13.38;100.00
2791;BME280;31795;50.970;13.366;2022-10-16T06:39:53;97745.75;;;13.41;100.00
2791;BME280;31795;50.970;13.366;2022-10-16T06:42:08;97759.47;;;13.43;100.00
2791;BME280;31795;50.970;13.366;2022-10-16T06:44:34;97749.97;;;13.42;100.00
2791;BME280;31795;50.970;13.366;2022-10-16T06:47:09;97759.03;;;13.39;100.00
2791;BME280;31795;50.970;13.366;2022-10-16T06:49:34;97755.84;;;13.44;100.00
2791;BME280;31795;50.970;13.366;2022-10-16T06:51:43;97758.06;;;13.47;100.00
2791;BME280;31795;50.970;13.366;2022-10-16T06:53:52;97761.28;;;13.56;100.00
2791;BME280;31795;50.970;13.366;2022-10-16T06:56:08;97760.47;;;13.62;100.00
2791;BME280;31795;50.970;13.366;2022-10-16T06:58:15;97772.56;;;13.70;100.00
2791;BME280;31795;50.970;13.366;2022-10-16T07:06:45;97784.06;;;13.82;100.00
2791;BME280;31795;50.970;13.366;2022-10-16T07:08:52;97791.31;;;13.87;100.00
2791;BME280;31795;50.970;13.366;2022-10-16T07:11:02;97797.16;;;13.95;100.00
2791;BME280;31795;50.970;13.366;2022-10-16T07:13:12;97808.66;;;14.01;100.00
2791;BME280;31795;50.970;13.366;2022-10-16T07:15:31;97811.88;;;14.10;100.00
2791;BME280;31795;50.970;13.366;2022-10-16T07:17:44;97816.31;;;14.16;100.00
2791;BME280;31795;50.970;13.366;2022-10-16T07:19:52;97810.03;;;14.24;100.00
2791;BME280;31795;50.970;13.366;2022-10-16T07:22:29;97816.47;;;14.35;100.00
2791;BME280;31795;50.970;13.366;2022-10-16T07:24:38;97827.94;;;14.47;100.00
2791;BME280;31795;50.970;13.366;2022-10-16T07:26:52;97826.91;;;14.62;100.00
2791;BME280;31795;50.970;13.366;2022-10-16T07:29:07;97832.09;;;14.82;100.00
2791;BME280;31795;50.970;13.366;2022-10-16T07:31:21;97833.22;;;15.06;100.00
2791;BME280;31795;50.970;13.366;2022-10-16T07:33:42;97834.16;;;15.19;100.00
2791;BME280;31795;50.970;13.366;2022-10-16T07:35:54;97836.91;;;15.30;100.00
2791;BME280;31795;50.970;13.366;2022-10-16T07:38:25;97837.88;;;15.36;100.00
2791;BME280;31795;50.970;13.366;2022-10-16T07:40:32;97848.22;;;15.38;100.00
2791;BME280;31795;50.970;13.366;2022-10-16T07:43:11;97848.66;;;15.28;100.00
2791;BME280;31795;50.970;13.366;2022-10-16T07:45:34;97849.09;;;15.25;100.00
2791;BME280;31795;50.970;13.366;2022-10-16T07:47:41;97836.53;;;15.27;100.00
2791;BME280;31795;50.970;13.366;2022-10-16T07:49:47;97832.44;;;15.38;100.00
2791;BME280;31795;50.970;13.366;2022-10-16T07:51:56;97841.84;;;15.52;100.00
2791;BME280;31795;50.970;13.366;2022-10-16T07:54:19;97823.97;;;15.61;100.00
2791;BME280;31795;50.970;13.366;2022-10-16T07:56:25;97828.16;;;15.69;100.00
2791;BME280;31795;50.970;13.366;2022-10-16T07:58:43;97832.13;;;15.78;100.00
2791;BME280;31795;50.970;13.366;2022-10-16T08:01:11;97849.28;;;15.87;100.00
2791;BME280;31795;50.970;13.366;2022-10-16T08:03:25;97849.25;;;15.94;100.00
2791;BME280;31795;50.970;13.366;2022-10-16T08:05:32;97842.91;;;16.02;100.00
2791;BME280;31795;50.970;13.366;2022-10-16T08:07:50;97837.16;;;16.12;100.00
2791;BME280;31795;50.970;13.366;2022-10-16T08:09:59;97824.06;;;16.23;100.00
2791;BME280;31795;50.970;13.366;2022-10-16T08:12:09;97831.63;;;16.38;100.00
2791;BME280;31795;50.970;13.366;2022-10-16T08:14:48;97832.13;;;16.47;100.00
2791;BME280;31795;50.970;13.366;2022-10-16T08:16:57;97822.66;;;16.58;100.00
2791;BME280;31795;50.970;13.366;2022-10-16T08:19:04;97829.47;;;16.66;100.00
2791;BME280;31795;50.970;13.366;2022-10-16T08:21:23;97833.88;;;16.72;100.00
2791;BME280;31795;50.970;13.366;2022-10-16T08:23:31;97841.31;;;16.75;100.00
2791;BME280;31795;50.970;13.366;2022-10-16T08:25:42;97844.19;;;16.74;100.00
2791;BME280;31795;50.970;13.366;2022-10-16T08:27:57;97840.53;;;16.75;100.00
2791;BME280;31795;50.970;13.366;2022-10-16T08:30:11;97845.22;;;16.73;100.00
2791;BME280;31795;50.970;13.366;2022-10-16T08:32:32;97844.41;;;16.72;100.00
2791;BME280;31795;50.970;13.366;2022-10-16T08:34:55;97849.66;;;16.91;100.00
2791;BME280;31795;50.970;13.366;2022-10-16T08:37:11;97850.75;;;17.20;100.00
2791;BME280;31795;50.970;13.366;2022-10-16T08:39:35;97854.34;;;17.38;100.00
2791;BME280;31795;50.970;13.366;2022-10-16T08:42:18;97860.72;;;17.60;100.00
2791;BME280;31795;50.970;13.366;2022-10-16T08:47:38;97861.81;;;17.83;100.00
2791;BME280;31795;50.970;13.366;2022-10-16T08:49:55;97856.75;;;17.93;100.00
2791;BME280;31795;50.970;13.366;2022-10-16T08:52:10;97851.34;;;17.76;100.00
2791;BME280;31795;50.970;13.366;2022-10-16T08:54:39;97852.34;;;17.64;100.00
2791;BME280;31795;50.970;13.366;2022-10-16T08:56:54;97848.97;;;17.44;100.00
2791;BME280;31795;50.970;13.366;2022-10-16T08:59:14;97852.09;;;17.53;100.00
2791;BME280;31795;50.970;13.366;2022-10-16T09:01:39;97851.00;;;17.73;100.00
2791;BME280;31795;50.970;13.366;2022-10-16T09:06:46;97852.50;;;17.92;100.00
2791;BME280;31795;50.970;13.366;2022-10-16T09:09:07;97864.81;;;18.11;100.00
2791;BME280;31795;50.970;13.366;2022-10-16T09:11:25;97865.75;;;18.16;100.00
2791;BME280;31795;50.970;13.366;2022-10-16T09:13:39;97868.06;;;18.25;100.00
2791;BME280;31795;50.970;13.366;2022-10-16T09:16:04;97858.50;;;18.35;100.00
2791;BME280;31795;50.970;13.366;2022-10-16T09:18:24;97864.94;;;18.40;100.00
2791;BME280;31795;50.970;13.366;2022-10-16T09:20:40;97857.72;;;18.35;100.00
2791;BME280;31795;50.970;13.366;2022-10-16T09:23:12;97870.22;;;18.28;100.00
2791;BME280;31795;50.970;13.366;2022-10-16T09:25:21;97866.78;;;18.39;100.00
2791;BME280;31795;50.970;13.366;2022-10-16T09:27:37;97863.53;;;18.49;100.00
2791;BME280;31795;50.970;13.366;2022-10-16T09:29:44;97869.66;;;18.49;100.00
2791;BME280;31795;50.970;13.366;2022-10-16T09:32:09;97873.31;;;18.48;100.00
2791;BME280;31795;50.970;13.366;2022-10-16T09:34:26;97876.63;;;18.56;100.00
2791;BME280;31795;50.970;13.366;2022-10-16T09:36:43;97882.75;;;18.56;100.00
2791;BME280;31795;50.970;13.366;2022-10-16T09:39:06;97879.72;;;18.64;100.00
2791;BME280;31795;50.970;13.366;2022-10-16T09:41:17;97878.31;;;18.74;100.00
2791;BME280;31795;50.970;13.366;2022-10-16T09:43:38;97882.81;;;18.85;100.00
2791;BME280;31795;50.970;13.366;2022-10-16T09:45:59;97878.31;;;18.97;100.00
2791;BME280;31795;50.970;13.366;2022-10-16T09:48:12;97884.59;;;19.08;100.00
2791;BME280;31795;50.970;13.366;2022-10-16T09:50:37;97894.47;;;19.13;100.00
2791;BME280;31795;50.970;13.366;2022-10-16T09:52:44;97889.38;;;19.23;100.00
2791;BME280;31795;50.970;13.366;2022-10-16T09:57:55;97901.19;;;19.33;100.00
2791;BME280;31795;50.970;13.366;2022-10-16T10:00:09;97905.00;;;19.25;100.00
2791;BME280;31795;50.970;13.366;2022-10-16T10:02:28;97915.75;;;19.47;100.00
2791;BME280;31795;50.970;13.366;2022-10-16T10:04:50;97911.44;;;19.58;100.00
2791;BME280;31795;50.970;13.366;2022-10-16T10:07:17;97908.41;;;19.66;100.00
2791;BME280;31795;50.970;13.366;2022-10-16T10:09:30;97915.72;;;19.76;100.00
2791;BME280;31795;50.970;13.366;2022-10-16T10:11:57;97919.00;;;19.83;100.00
2791;BME280;31795;50.970;13.366;2022-10-16T10:14:16;97917.53;;;19.87;100.00
2791;BME280;31795;50.970;13.366;2022-10-16T10:16:24;97924.13;;;20.02;100.00
2791;BME280;31795;50.970;13.366;2022-10-16T10:18:32;97926.56;;;19.91;100.00
2791;BME280;31795;50.970;13.366;2022-10-16T10:21:02;97919.16;;;19.76;100.00
2791;BME280;31795;50.970;13.366;2022-10-16T10:23:21;97930.63;;;19.65;100.00
2791;BME280;31795;50.970;13.366;2022-10-16T10:25:39;97924.75;;;19.63;100.00
2791;BME280;31795;50.970;13.366;2022-10-16T10:28:19;97920.91;;;19.71;100.00
2791;BME280;31795;50.970;13.366;2022-10-16T10:30:37;97926.88;;;19.78;100.00
2791;BME280;31795;50.970;13.366;2022-10-16T10:33:15;97929.19;;;19.74;100.00
2791;BME280;31795;50.970;13.366;2022-10-16T10:35:30;97934.38;;;19.98;100.00
2791;BME280;31795;50.970;13.366;2022-10-16T10:38:00;97933.19;;;20.23;100.00
2791;BME280;31795;50.970;13.366;2022-10-16T10:40:16;97938.56;;;20.67;100.00
2791;BME280;31795;50.970;13.366;2022-10-16T10:42:34;97946.75;;;20.44;100.00
2791;BME280;31795;50.970;13.366;2022-10-16T10:45:11;97937.47;;;20.46;100.00
2791;BME280;31795;50.970;13.366;2022-10-16T10:47:28;97943.63;;;20.30;100.00
2791;BME280;31795;50.970;13.366;2022-10-16T10:50:14;97941.53;;;20.15;100.00
2791;BME280;31795;50.970;13.366;2022-10-16T10:52:45;97935.81;;;20.06;100.00
2791;BME280;31795;50.970;13.366;2022-10-16T10:55:21;97940.16;;;19.66;100.00
2791;BME280;31795;50.970;13.366;2022-10-16T10:58:14;97940.34;;;19.76;100.00
2791;BME280;31795;50.970;13.366;2022-10-16T11:00:28;97940.66;;;19.80;100.00
2791;BME280;31795;50.970;13.366;2022-10-16T11:02:41;97940.75;;;19.68;100.00
2791;BME280;31795;50.970;13.366;2022-10-16T11:07:39;97935.31;;;19.75;100.00
2791;BME280;31795;50.970;13.366;2022-10-16T11:13:19;97943.28;;;20.09;100.00
2791;BME280;31795;50.970;13.366;2022-10-16T11:15:32;97940.53;;;19.87;100.00
2791;BME280;31795;50.970;13.366;2022-10-16T11:17:55;97941.38;;;20.04;100.00
2791;BME280;31795;50.970;13.366;2022-10-16T11:20:13;97934.41;;;20.15;100.00
2791;BME280;31795;50.970;13.366;2022-10-16T11:22:27;97937.97;;;20.26;100.00
2791;BME280;31795;50.970;13.366;2022-10-16T11:24:41;97944.84;;;20.22;100.00
2791;BME280;31795;50.970;13.366;2022-10-16T11:26:53;97949.94;;;20.12;100.00
2791;BME280;31795;50.970;13.366;2022-10-16T11:29:03;97950.88;;;20.17;100.00
2791;BME280;31795;50.970;13.366;2022-10-16T11:31:26;97953.25;;;20.19;100.00
2791;BME280;31795;50.970;13.366;2022-10-16T11:33:40;97952.38;;;19.96;100.00
2791;BME280;31795;50.970;13.366;2022-10-16T11:36:08;97946.66;;;19.87;100.00
2791;BME280;31795;50.970;13.366;2022-10-16T11:38:55;97947.56;;;19.81;100.00
2791;BME280;31795;50.970;13.366;2022-10-16T11:41:17;97950.72;;;19.78;100.00
2791;BME280;31795;50.970;13.366;2022-10-16T11:43:35;97955.28;;;19.83;100.00
2791;BME280;31795;50.970;13.366;2022-10-16T11:45:53;97959.44;;;19.79;100.00
2791;BME280;31795;50.970;13.366;2022-10-16T11:48:15;97960.25;;;19.79;100.00
2791;BME280;31795;50.970;13.366;2022-10-16T11:50:28;97958.47;;;19.97;100.00
2791;BME280;31795;50.970;13.366;2022-10-16T11:52:47;97962.72;;;19.98;100.00
2791;BME280;31795;50.970;13.366;2022-10-16T11:54:59;97965.88;;;19.83;100.00
2791;BME280;31795;50.970;13.366;2022-10-16T11:57:19;97968.16;;;19.91;100.00
2791;BME280;31795;50.970;13.366;2022-10-16T11:59:31;97967.88;;;20.04;100.00
2791;BME280;31795;50.970;13.366;2022-10-16T12:01:43;97971.09;;;20.06;100.00
2791;BME280;31795;50.970;13.366;2022-10-16T12:04:22;97967.47;;;20.13;100.00
2791;BME280;31795;50.970;13.366;2022-10-16T12:06:43;97973.16;;;20.04;100.00
2791;BME280;31795;50.970;13.366;2022-10-16T12:08:54;97975.34;;;20.25;100.00
2791;BME280;31795;50.970;13.366;2022-10-16T12:11:23;97973.81;;;20.46;100.00
2791;BME280;31795;50.970;13.366;2022-10-16T12:13:32;97977.25;;;20.63;100.00
2791;BME280;31795;50.970;13.366;2022-10-16T12:15:39;97968.66;;;20.56;100.00
2791;BME280;31795;50.970;13.366;2022-10-16T12:17:52;97969.38;;;20.51;100.00
2791;BME280;31795;50.970;13.366;2022-10-16T12:20:15;97971.25;;;20.51;100.00
2791;BME280;31795;50.970;13.366;2022-10-16T12:22:27;97975.44;;;20.47;100.00